Time;durP1;ratioP1;P1;durP2;ratioP2;P2;SDS_P1;SDS_P2;PMS_P1;PMS_P2;Temp;Humidity;BMP_temperature;BMP_pressure;BME280_temperature;BME280_humidity;BME280_pressure;Samples;Min_cycle;Max_cycle;Signal;HPM_P1;HPM_P2
2022/06/26 00:01:39;;;;;;;;;;;;;;;-144.99;100.00;52236.13;5087657;28;19920;-75
2022/06/26 00:04:06;;;;;;;;;;;;;;;-144.99;100.00;52195.34;5101955;28;19919;-75
2022/06/26 00:06:32;;;;;;;;;;;;;;;-144.99;100.00;52207.59;5098584;28;19978;-75
2022/06/26 00:08:59;;;;;;;;;;;;;;;-144.99;100.00;52215.75;5093896;28;19927;-75
2022/06/26 00:11:26;;;;;;;;;;;;;;;-144.99;100.00;52219.81;5076355;28;19928;-76
2022/06/26 00:13:52;;;;;;;;;;;;;;;-144.99;100.00;52227.97;5090273;28;20060;-77
2022/06/26 00:16:21;;;;;;;;;;;;;;;-144.99;100.00;52197.41;5090909;28;19923;-77
2022/06/26 00:18:47;;;;;;;;;;;;;;;-144.99;100.00;52252.44;5088132;28;20188;-77
2022/06/26 00:21:14;;;;;;;;;;;;;;;-144.99;100.00;52201.47;5087072;28;20343;-77
2022/06/26 00:23:41;;;;;;;;;;;;;;;-144.99;100.00;52244.28;5084722;28;20444;-77
2022/06/26 00:26:07;;;;;;;;;;;;;;;-144.99;100.00;52221.84;5081298;28;19924;-77
2022/06/26 00:28:34;;;;;;;;;;;;;;;-144.99;100.00;52234.09;5089873;28;19920;-77
2022/06/26 00:31:01;;;;;;;;;;;;;;;-144.99;100.00;52203.50;5086591;28;19973;-77
2022/06/26 00:33:29;;;;;;;;;;;;;;;-144.99;100.00;52234.09;5077779;28;20356;-77
2022/06/26 00:35:55;;;;;;;;;;;;;;;-144.99;100.00;52223.88;5088874;28;20432;-77
2022/06/26 00:38:22;;;;;;;;;;;;;;;-144.99;100.00;52240.19;5087309;28;20359;-77
2022/06/26 00:40:48;;;;;;;;;;;;;;;-144.99;100.00;52219.81;5093283;28;19931;-75
2022/06/26 00:43:15;;;;;;;;;;;;;;;-144.99;100.00;52236.13;5088110;28;19955;-79
2022/06/26 00:45:41;;;;;;;;;;;;;;;-144.99;100.00;52230.00;5087808;28;20013;-77
2022/06/26 00:48:08;;;;;;;;;;;;;;;-144.99;100.00;52240.19;5084592;28;19924;-76
2022/06/26 00:50:36;;;;;;;;;;;;;;;-144.99;100.00;52223.88;5082677;28;19963;-76
2022/06/26 00:53:02;;;;;;;;;;;;;;;-144.99;100.00;52268.72;5089561;28;19956;-77
2022/06/26 00:55:29;;;;;;;52.55;47.33;;;;;;;-144.99;100.00;52215.75;5091713;28;24514;-77
2022/06/26 00:57:56;;;;;;;;;;;;;;;-144.99;100.00;52227.97;5093468;28;20336;-77
2022/06/26 01:00:23;;;;;;;;;;;;;;;-144.99;100.00;52236.13;5094381;28;19928;-76
2022/06/26 01:02:49;;;;;;;;;;;;;;;-144.99;100.00;52232.03;5095017;28;19966;-76
2022/06/26 01:05:16;;;;;;;;;;;;;;;-144.99;100.00;52203.50;5093631;28;19946;-77
2022/06/26 01:07:44;;;;;;;;;;;;;;;-144.99;100.00;52215.75;5091324;28;19920;-77
2022/06/26 01:10:10;;;;;;;;;;;;;;;-144.99;100.00;52203.50;5094032;28;19969;-77
2022/06/26 01:12:37;;;;;;;;;;;;;;;-144.99;100.00;52240.19;5092034;28;19920;-77
2022/06/26 01:15:07;;;;;;;;;;;;;;;-144.99;100.00;52211.66;5095439;28;19938;-75
2022/06/26 01:17:34;;;;;;;;;;;;;;;-144.99;100.00;52254.47;5094783;28;19926;-74
2022/06/26 01:20:01;;;;;;;;;;;;;;;-144.99;100.00;52211.66;5091250;28;20312;-75
2022/06/26 01:22:29;;;;;;;;;;;;;;;-144.99;100.00;52244.28;5085821;28;19924;-76
2022/06/26 01:24:55;;;;;;;;;;;;;;;-144.99;100.00;52195.34;5091661;28;20330;-76
2022/06/26 01:27:22;;;;;;;;;;;;;;;-144.99;100.00;52227.97;5094617;28;20445;-76
2022/06/26 01:29:48;;;;;;;;;;;;;;;-144.99;100.00;52203.50;5093049;28;19995;-76
2022/06/26 01:32:15;;;;;;;;;;;;;;;-144.99;100.00;52250.38;5075858;28;19924;-76
2022/06/26 01:34:41;;;;;;;;;;;;;;;-144.99;100.00;52221.84;5090118;28;20014;-75
2022/06/26 01:37:08;;;;;;;;;;;;;;;-144.99;100.00;52211.66;5084261;28;19919;-76
2022/06/26 01:39:36;;;;;;;;;;;;;;;-144.99;100.00;52227.97;5090191;28;19927;-76
2022/06/26 01:42:03;;;;;;;;;;;;;;;-144.99;100.00;52248.34;5091619;28;19920;-76
2022/06/26 01:44:29;;;;;;;;;;;;;;;-144.99;100.00;52252.44;5090492;28;19931;-76
2022/06/26 01:46:56;;;;;;;;;;;;;;;-144.99;100.00;52248.34;5087305;28;19973;-75
2022/06/26 01:49:23;;;;;;;;;;;;;;;-144.99;100.00;52211.66;5087100;28;19924;-75
2022/06/26 01:51:49;;;;;;;;;;;;;;;-144.99;100.00;52248.34;5089344;28;20454;-75
2022/06/26 01:54:17;;;;;;;;;;;;;;;-144.99;100.00;52244.28;5087311;28;19931;-75
2022/06/26 01:56:45;;;;;;;;;;;;;;;-144.99;100.00;52215.75;5090747;28;20489;-76
2022/06/26 01:59:12;;;;;;;;;;;;;;;-144.99;100.00;52227.97;5090268;28;19932;-75
2022/06/26 02:01:38;;;;;;;;;;;;;;;-144.99;100.00;52238.16;5097579;28;19920;-73
2022/06/26 02:04:05;;;;;;;;;;;;;;;-144.99;100.00;52219.81;5098468;28;19920;-75
2022/06/26 02:06:31;;;;;;;;;;;;;;;-144.99;100.00;52236.13;5091204;28;19920;-76
2022/06/26 02:08:58;;;;;;;;;;;;;;;-144.99;100.00;52256.50;5090732;28;20418;-76
2022/06/26 02:14:10;;;;;;;;;;;;;;;-144.99;100.00;52252.44;5096383;28;20009;-77
2022/06/26 02:16:36;;;;;;;;;;;;;;;-144.99;100.00;52223.88;5092547;28;20134;-77
2022/06/26 02:19:03;;;;;;;;;;;;;;;-144.99;100.00;52197.41;5095436;28;19969;-76
2022/06/26 02:21:30;;;;;;;;;;;;;;;-144.99;100.00;52215.75;5081643;28;19927;-74
2022/06/26 02:23:59;;;;;;;;;;;;;;;-144.99;100.00;52236.13;5088742;28;19924;-76
2022/06/26 02:26:25;;;;;;;;;;;;;;;-144.99;100.00;52234.09;5088530;28;20012;-76
2022/06/26 02:28:52;;;;;;;;;;;;;;;-144.99;100.00;52260.56;5102517;28;19908;-75
2022/06/26 02:31:20;;;;;;;;;;;;;;;-144.99;100.00;52219.81;5111193;28;19980;-75
2022/06/26 02:33:46;;;;;;;;;;;;;;;-144.99;100.00;52256.50;5087246;28;19920;-76
2022/06/26 02:36:13;;;;;;;;;;;;;;;-144.99;100.00;52219.81;5082766;28;19955;-76
2022/06/26 02:38:40;;;;;;;;;;;;;;;-144.99;100.00;52219.81;5087295;28;20431;-75
2022/06/26 02:41:06;;;;;;;;;;;;;;;-144.99;100.00;52215.75;5085540;28;19959;-76
2022/06/26 02:43:33;;;;;;;;;;;;;;;-144.99;100.00;52246.31;5088285;28;19982;-76
2022/06/26 02:46:00;;;;;;;;;;;;;;;-144.99;100.00;52260.56;5086230;28;20379;-76
2022/06/26 02:48:28;;;;;;;;;;;;;;;-144.99;100.00;52227.97;5086166;28;19931;-76
2022/06/26 02:50:54;;;;;;;;;;;;;;;-144.99;100.00;52252.44;5085776;28;19927;-76
2022/06/26 02:53:21;;;;;;;;;;;;;;;-144.99;100.00;52240.19;5086983;28;20969;-76
2022/06/26 02:55:47;;;;;;;;;;;;;;;-144.99;100.00;52203.50;5088357;28;19961;-76
2022/06/26 02:58:14;;;;;;;;;;;;;;;-144.99;100.00;52203.50;5081573;28;19925;-76
2022/06/26 03:00:41;;;;;;;;;;;;;;;-144.99;100.00;52248.34;5079746;28;19927;-76
2022/06/26 03:03:07;;;;;;;;;;;;;;;-144.99;100.00;52219.81;5089035;28;19920;-77
2022/06/26 03:05:35;;;;;;;;;;;;;;;-144.99;100.00;52264.66;5095349;28;19920;-78
2022/06/26 03:08:02;;;;;;;;;;;;;;;-144.99;100.00;52232.03;5085184;28;19920;-77
2022/06/26 03:10:28;;;;;;;;;;;;;;;-144.99;100.00;52227.97;5094252;28;19920;-77
2022/06/26 03:12:55;;;;;;;;;;;;;;;-144.99;100.00;52232.03;5086768;28;20276;-78
2022/06/26 03:15:22;;;;;;;;;;;;;;;-144.99;100.00;52248.34;5084546;28;19969;-77
2022/06/26 03:17:48;;;;;;;;;;;;;;;-144.99;100.00;52256.50;5087875;28;19980;-77
2022/06/26 03:20:16;;;;;;;;;;;;;;;-144.99;100.00;52207.59;5085723;28;19934;-76
2022/06/26 03:22:44;;;;;;;;;;;;;;;-144.99;100.00;52280.97;5088907;28;19930;-77
2022/06/26 03:25:11;;;;;;;;;;;;;;;-144.99;100.00;52232.03;5085163;28;19924;-75
2022/06/26 03:27:38;;;;;;;;;;;;;;;-144.99;100.00;52240.19;5089164;28;19920;-76
2022/06/26 03:30:05;;;;;;;;;;;;;;;-144.99;100.00;52193.31;5087396;28;19920;-75
2022/06/26 03:32:31;;;;;;;;;;;;;;;-144.99;100.00;52234.09;5070208;28;20403;-76
2022/06/26 03:34:58;;;;;;;;;;;;;;;-144.99;100.00;52227.97;5088182;28;20002;-76
2022/06/26 03:37:24;;;;;;;;;;;;;;;-144.99;100.00;52248.34;5079722;28;19920;-76
2022/06/26 03:39:52;;;;;;;;;;;;;;;-144.99;100.00;52260.56;5088994;28;20276;-76
2022/06/26 03:42:19;;;;;;;;;;;;;;;-144.99;100.00;52219.81;5086968;28;19974;-75
2022/06/26 03:44:46;;;;;;;;;;;;;;;-144.99;100.00;52252.44;5089577;28;20008;-76
2022/06/26 03:47:13;;;;;;;;;;;;;;;-144.99;100.00;52223.88;5084479;28;19981;-77
2022/06/26 03:49:39;;;;;;;;;;;;;;;-144.99;100.00;52256.50;5083293;28;19920;-76
2022/06/26 03:52:06;;;;;;;;;;;;;;;-144.99;100.00;52227.97;5087037;28;19924;-76
2022/06/26 03:54:34;;;;;;;;;;;;;;;-144.99;100.00;52240.19;5084193;28;19920;-77
2022/06/26 03:57:02;;;;;;;;;;;;;;;-144.99;100.00;52217.78;5088989;28;19920;-76
2022/06/26 03:59:28;;;;;;;;;;;;;;;-144.99;100.00;52240.19;5081581;28;20389;-76
2022/06/26 04:01:55;;;;;;;;;;;;;;;-144.99;100.00;52236.13;5089027;28;19927;-75
2022/06/26 04:04:21;;;;;;;;;;;;;;;-144.99;100.00;52252.44;5086933;28;19942;-75
2022/06/26 04:06:48;;;;;;;;;;;;;;;-144.99;100.00;52215.75;5085564;28;19946;-76
2022/06/26 04:09:14;;;;;;;;;;;;;;;-144.99;100.00;52244.28;5086754;28;19961;-77
2022/06/26 04:11:41;;;;;;;;;;;;;;;-144.99;100.00;52191.28;5072705;28;19932;-76
2022/06/26 04:14:09;;;;;;;;;;;;;;;-144.99;100.00;52260.56;5089581;28;19920;-77
2022/06/26 04:16:35;;;;;;;;;;;;;;;-144.99;100.00;52238.16;5087190;28;19974;-76
2022/06/26 04:19:02;;;;;;;;;;;;;;;-144.99;100.00;52236.13;5088791;28;20401;-76
2022/06/26 04:21:28;;;;;;;;;;;;;;;-144.99;100.00;52244.28;5083595;28;19928;-73
2022/06/26 04:23:55;;;;;;;;;;;;;;;-144.99;100.00;52195.34;5085696;28;20247;-76
2022/06/26 04:26:22;;;;;;;;;;;;;;;-144.99;100.00;52227.97;5090906;28;19928;-77
2022/06/26 04:28:48;;;;;;;;;;;;;;;-144.99;100.00;52264.66;5093221;28;19981;-77
2022/06/26 04:31:16;;;;;;;;;;;;;;;-144.99;100.00;52238.16;5089453;28;19928;-77
2022/06/26 04:33:43;;;;;;;;;;;;;;;-144.99;100.00;52225.94;5089299;28;19951;-78
2022/06/26 04:36:11;;;;;;;;;;;;;;;-144.99;100.00;52227.97;5095285;28;20005;-77
2022/06/26 04:38:37;;;;;;;;;;;;;;;-144.99;100.00;52236.13;5113165;28;19943;-76
2022/06/26 04:41:31;;;;;;;;;;;;;;;-144.99;100.00;52195.34;5116082;28;19931;-76
2022/06/26 04:43:51;;;;;;;;;;;;;;;-144.99;100.00;52260.56;5090466;28;19928;-75
2022/06/26 04:46:19;;;;;;;;;;;;;;;-144.99;100.00;52236.13;5088487;28;19924;-75
2022/06/26 04:48:45;;;;;;;;;;;;;;;-144.99;100.00;52205.53;5087336;28;20395;-75
2022/06/26 04:51:12;;;;;;;;;;;;;;;-144.99;100.00;52207.59;5089958;28;19969;-75
2022/06/26 04:53:38;;;;;;;;;;;;;;;-144.99;100.00;52221.84;5088200;28;19950;-74
2022/06/26 04:56:05;;;;;;;;;;;;;;;-144.99;100.00;52225.94;5092343;28;19989;-75
2022/06/26 04:58:32;;;;;;;;;;;;;;;-144.99;100.00;52232.03;5083145;28;19925;-75
2022/06/26 05:00:58;;;;;;;;;;;;;;;-144.99;100.00;52236.13;5084283;28;20339;-75
2022/06/26 05:03:26;;;;;;;;;;;;;;;-144.99;100.00;52240.19;5091239;28;19920;-75
2022/06/26 05:05:53;;;;;;;;;;;;;;;-144.99;100.00;52195.34;5092074;28;19920;-75
2022/06/26 05:08:19;;;;;;;;;;;;;;;-144.99;100.00;52227.97;5088919;28;20019;-74
2022/06/26 05:10:46;;;;;;;;;;;;;;;-144.99;100.00;52227.97;5092151;28;19924;-75
2022/06/26 05:13:12;;;;;;;;;;;;;;;-144.99;100.00;52197.41;5090582;28;19943;-76
2022/06/26 05:15:39;;;;;;;;;;;;;;;-144.99;100.00;52199.44;5089078;28;19924;-75
2022/06/26 05:18:05;;;;;;;;;;;;;;;-144.99;100.00;52174.97;5094444;28;19934;-75
2022/06/26 05:20:33;;;;;;;;;;;;;;;-144.99;100.00;52209.63;5100289;28;19939;-75
2022/06/26 05:23:00;;;;;;;;;;;;;;;-144.99;100.00;52195.34;5105937;28;19940;-75
2022/06/26 05:25:26;;;;;;;;;;;;;;;-144.99;100.00;52221.84;5091222;28;19924;-75
2022/06/26 05:27:53;;;;;;;;;;;;;;;-144.99;100.00;52203.50;5088936;28;19927;-76
2022/06/26 05:30:19;;;;;;;;;;;;;;;-144.99;100.00;52166.81;5085297;28;19925;-75
2022/06/26 05:32:46;;;;;;;;;;;;;;;-144.99;100.00;52203.50;5075577;28;19924;-76
2022/06/26 05:35:12;;;;;;;;;;;;;;;-144.99;100.00;52252.44;5090601;28;19928;-76
2022/06/26 05:37:40;;;;;;;;;;;;;;;-144.99;100.00;52211.66;5084922;28;20055;-77
2022/06/26 05:40:08;;;;;;;;;;;;;;;-144.99;99.49;52205.53;5090557;28;20019;-77
2022/06/26 05:42:34;;;;;;;;;;;;;;;-144.99;98.57;52219.81;5085679;28;19967;-77
2022/06/26 05:45:01;;;;;;;;;;;;;;;-144.99;98.14;52199.44;5092804;28;19920;-77
2022/06/26 05:47:27;;;;;;;;;;;;;;;-144.99;96.60;52203.50;5087933;28;20356;-76
2022/06/26 05:49:54;;;;;;;;;;;;;;;-144.99;93.94;52211.66;5088104;28;19920;-77
2022/06/26 05:52:21;;;;;;;;;;;;;;;-144.99;93.07;52187.19;5089965;28;19927;-77
2022/06/26 05:54:49;;;;;;;;;;;;;;;-144.99;92.29;52189.25;5088896;28;20010;-78
2022/06/26 05:57:16;;;;;;;;;;;;;;;-144.99;90.29;52197.41;5091875;28;20052;-76
2022/06/26 05:59:42;;;;;;;;;;;;;;;-144.99;88.71;52209.63;5120345;22;20006;-73
2022/06/26 06:02:09;;;;;;;;;;;;;;;-144.99;88.13;52205.53;5079521;28;19924;-74
2022/06/26 06:04:35;;;;;;;;;;;;;;;-144.99;88.12;52170.91;5085538;28;19920;-74
2022/06/26 06:07:01;;;;;;;;;;;;;;;-144.99;87.65;52187.19;5090111;28;19927;-73
2022/06/26 06:09:28;;;;;;;;;;;;;;;-144.99;87.85;52183.13;5083229;28;19997;-73
2022/06/26 06:11:56;;;;;;;;;;;;;;;-144.99;87.43;52195.34;5081635;28;19924;-74
2022/06/26 06:14:22;;;;;;;;;;;;;;;-144.99;87.16;52199.44;5081638;28;19944;-74
2022/06/26 06:16:49;;;;;;;;;;;;;;;-144.99;86.81;52199.44;5090818;28;20347;-73
2022/06/26 06:19:15;;;;;;;;;;;;;;;-144.99;86.62;52191.28;5086679;28;19920;-74
2022/06/26 06:21:42;;;;;;;;;;;;;;;-144.99;86.49;52181.09;5076094;28;19924;-72
2022/06/26 06:24:08;;;;;;;;;;;;;;;-144.99;86.34;52183.13;5089757;28;19931;-73
2022/06/26 06:26:35;;;;;;;;;;;;;;;-144.99;84.71;52174.97;5090724;28;19923;-72
2022/06/26 06:29:03;;;;;;;;;;;;;;;-144.99;82.39;52179.06;5091468;28;19920;-70
2022/06/26 06:31:30;;;;;;;;;;;;;;;-144.99;82.43;52162.75;5083871;28;20014;-70
2022/06/26 06:33:56;;;;;;;;;;;;;;;-144.99;80.94;52166.81;5087696;28;19920;-70
2022/06/26 06:36:23;;;;;;;;;;;;;;;-144.99;77.85;52203.50;5078065;28;20364;-70
2022/06/26 06:38:49;;;;;;;;;;;;;;;-144.99;76.12;52177.00;5077079;28;20040;-71
2022/06/26 06:41:16;;;;;;;;;;;;;;;-144.99;75.95;52162.75;5088617;28;20423;-69
2022/06/26 06:43:42;;;;;;;;;;;;;;;-144.99;74.23;52183.13;5083685;28;19920;-70
2022/06/26 06:46:10;;;;;;;;;;;;;;;-144.99;71.78;52146.44;5078870;28;19951;-68
2022/06/26 06:48:36;;;;;;;;;;;;;;;-144.99;70.73;52199.44;5086352;28;19976;-71
2022/06/26 06:51:03;;;;;;;;;;;;;;;-144.99;70.44;52183.13;5079213;28;19927;-71
2022/06/26 06:53:30;;;;;;;;;;;;;;;-144.99;70.17;52158.66;5070997;28;20415;-71
2022/06/26 06:55:56;;;;;;;;;;;;;;;-144.99;69.83;52177.00;5084986;28;19931;-72
2022/06/26 06:58:23;;;;;;;;;;;;;;;-144.99;68.70;52164.78;5075615;28;19973;-74
2022/06/26 07:00:49;;;;;;;;;;;;;;;-144.99;66.55;52154.59;5091858;28;19923;-76
2022/06/26 07:03:17;;;;;;;;;;;;;;;-144.99;64.92;52150.53;5086766;28;20007;-77
2022/06/26 07:05:44;;;;;;;;;;;;;;;-144.99;63.87;52130.13;5086638;28;19920;-77
2022/06/26 07:08:10;;;;;;;;;;;;;;;-144.99;61.86;52183.13;5083950;28;20364;-78
2022/06/26 07:10:37;;;;;;;;;;;;;;;-144.99;60.21;52146.44;5086440;28;19927;-75
2022/06/26 07:13:04;;;;;;;;;;;;;;;-144.99;59.71;52158.66;5084401;28;19920;-78
2022/06/26 07:15:30;;;;;;;;;;;;;;;-144.99;59.69;52126.06;5092931;28;20271;-76
2022/06/26 07:17:57;;;;;;;;;;;;;;;-144.99;58.93;52162.75;5091133;28;19974;-76
2022/06/26 07:20:25;;;;;;;;;;;;;;;-144.99;58.59;52140.31;5091650;28;19927;-77
2022/06/26 07:22:51;;;;;;;;;;;;;;;-144.99;58.11;52146.44;5091383;28;19931;-77
2022/06/26 07:25:18;;;;;;;;;;;;;;;-144.99;58.31;52146.44;5079644;28;19987;-76
2022/06/26 07:27:45;;;;;;;;;;;;;;;-144.99;58.28;52158.66;5083166;28;20020;-77
2022/06/26 07:30:12;;;;;;;;;;;;;;;-144.99;58.43;52146.44;5085927;28;20315;-78
2022/06/26 07:32:39;;;;;;;;;;;;;;;-144.99;57.51;52126.06;5077280;28;19924;-77
2022/06/26 07:35:06;;;;;;;;;;;;;;;-144.99;55.78;52146.44;5086357;28;19920;-76
2022/06/26 07:37:34;;;;;;;;;;;;;;;-144.99;56.18;52121.97;5074926;28;19941;-77
2022/06/26 07:40:00;;;;;;;;;;;;;;;-144.99;55.62;52150.53;5092104;28;19961;-76
2022/06/26 07:42:27;;;;;;;;;;;;;;;-144.99;56.25;52138.28;5074914;28;19927;-75
2022/06/26 07:44:53;;;;;;;;;;;;;;;-144.99;56.83;52134.22;5084191;28;19927;-74
2022/06/26 07:47:20;;;;;;;;;;;;;;;-144.99;57.98;52113.84;5081863;28;19920;-75
2022/06/26 07:49:47;;;;;;;;;;;;;;;-144.99;58.19;52154.59;5076777;28;20349;-74
2022/06/26 07:52:13;;;;;;;;;;;;;;;-144.99;58.65;52152.56;5081632;28;20353;-74
2022/06/26 07:54:41;;;;;;;;;;;;;;;-144.99;57.46;52109.75;5080231;28;19973;-74
2022/06/26 07:57:08;;;;;;;;;;;;;;;-144.99;56.76;52119.94;5084735;28;19920;-75
2022/06/26 07:59:34;;;;;;;;;;;;;;;-144.99;56.14;52121.97;5088444;28;19920;-75
2022/06/26 08:02:01;;;;;;;;;;;;;;;-144.99;54.84;52126.06;5100083;28;19920;-74
2022/06/26 08:04:27;;;;;;;;;;;;;;;-144.99;52.84;52097.53;5084397;28;19920;-74
2022/06/26 08:06:54;;;;;;;;;;;;;;;-144.99;51.35;52126.06;5087958;28;20360;-73
2022/06/26 08:09:20;;;;;;;;;;;;;;;-144.99;51.83;52136.25;5079666;28;20008;-75
2022/06/26 08:11:48;;;;;;;;;;;;;;;-144.99;51.78;52115.88;5086782;28;20268;-75
2022/06/26 08:14:15;;;;;;;;;;;;;;;-144.99;51.46;52134.22;5086771;28;19924;-74
2022/06/26 08:16:42;;;;;;;;;;;;;;;-144.99;50.81;52124.03;5093959;28;19977;-73
2022/06/26 08:19:08;;;;;;;;;;;;;;;-144.99;51.68;52154.59;5098432;28;20367;-72
2022/06/26 08:24:19;;;;;;;;;;;;;;;-144.99;51.07;52101.59;5089688;28;19926;-74
2022/06/26 08:26:45;;;;;;;;;;;;;;;-144.99;50.02;52134.22;5079864;28;19925;-74
2022/06/26 08:29:13;;;;;;;;;;;;;;;-144.99;50.18;52134.22;5094327;28;19924;-73
2022/06/26 08:31:39;;;;;;;;;;;;;;;-144.99;50.14;52109.75;5094891;28;20419;-74
2022/06/26 08:34:06;;;;;;;;;;;;;;;-144.99;49.64;52105.69;5096374;28;19924;-74
2022/06/26 08:36:33;;;;;;;;;;;;;;;-144.99;49.49;52109.75;5083886;28;20352;-73
2022/06/26 08:38:59;;;;;;;;;;;;;;;-144.99;49.30;52113.84;5093498;28;19920;-73
2022/06/26 08:41:28;;;;;;;;;;;;;;;-144.99;48.97;52119.94;5093438;28;19920;-74
2022/06/26 08:43:58;;;;;;;;;;;;;;;-144.99;49.13;52097.53;5094026;28;19924;-73
2022/06/26 08:46:27;;;;;;;;;;;;;;;-144.99;49.21;52138.28;5093645;28;20345;-74
2022/06/26 08:48:54;;;;;;;;;;;;;;;-144.99;49.68;52113.84;5094708;28;19923;-76
2022/06/26 08:51:20;;;;;;;;;;;;;;;-144.99;49.27;52119.94;5092672;28;19928;-72
2022/06/26 08:53:47;;;;;;;;;;;;;;;-144.99;49.73;52132.19;5086875;28;20387;-73
2022/06/26 08:56:14;;;;;;;;;;;;;;;-144.99;48.76;52109.75;5089650;28;19947;-73
2022/06/26 08:58:40;;;;;;;;;;;;;;;-144.99;48.21;52097.53;5085538;28;20596;-73
2022/06/26 09:01:07;;;;;;;;;;;;;;;-144.99;48.09;52077.16;5084030;28;19920;-73
2022/06/26 09:03:35;;;;;;;;;;;;;;;-144.99;48.30;52085.31;5085203;28;19928;-73
2022/06/26 09:06:02;;;;;;;;;;;;;;;-144.99;47.80;52079.19;5087725;28;19977;-74
2022/06/26 09:08:30;;;;;;;;;;;;;;;-144.99;46.97;52105.69;5084612;28;20439;-74
2022/06/26 09:10:58;;;;;;;;;;;;;;;-144.99;46.11;52077.16;5085804;28;20019;-73
2022/06/26 09:13:24;;;;;;;;;;;;;;;-144.99;46.03;52081.22;5087792;28;19924;-73
2022/06/26 09:15:51;;;;;;;;;;;;;;;-144.99;46.89;52121.97;5086295;28;20378;-73
2022/06/26 09:18:17;;;;;;;;;;;;;;;-144.99;47.77;52113.84;5089441;28;20363;-73
2022/06/26 09:20:53;;;;;;;;;;;;;;;-144.99;47.80;52022.13;4380724;28;10000753;-73
2022/06/26 09:23:19;;;;;;;;;;;;;;;-144.99;48.26;52066.97;5086496;28;20457;-74
2022/06/26 09:25:46;;;;;;;;;;;;;;;-144.99;46.37;52044.53;5081370;28;20368;-74
2022/06/26 09:28:14;;;;;;;;;;;;;;;-144.99;45.83;52018.03;5087122;28;20478;-74
2022/06/26 09:30:48;;;;;;;;;;;;;;;-144.99;45.61;52066.97;5083577;28;20413;-76
2022/06/26 09:33:15;;;;;;;;;;;;;;;-144.99;46.66;52093.44;5083820;28;19924;-75
2022/06/26 09:35:41;;;;;;;;;;;;;;;-144.99;47.04;52071.03;5084649;28;19928;-74
2022/06/26 09:38:09;;;;;;;;;;;;;;;-144.99;46.79;52093.44;5086893;28;19924;-74
2022/06/26 09:40:36;;;;;;;;;;;;;;;-144.99;46.87;52040.47;5086313;28;19924;-73
2022/06/26 09:43:03;;;;;;;;;;;;;;;-144.99;46.88;52069.00;5081729;28;19959;-73
2022/06/26 09:45:38;;;;;;;;;;;;;;;-144.99;47.61;52064.91;5082718;28;19951;-72
2022/06/26 09:48:06;;;;;;;;;;;;;;;-144.99;47.58;52089.38;5082984;28;20453;-73
2022/06/26 09:50:32;;;;;;;;;;;;;;;-144.99;48.11;52073.06;5081785;28;19931;-72
2022/06/26 09:52:59;;;;;;;;;;;;;;;-144.99;48.19;52093.44;5080380;28;19924;-73
2022/06/26 09:55:27;;;;;;;;;;;;;;;-144.99;49.15;52042.50;5082047;28;19932;-70
2022/06/26 09:57:54;;;;;;;;;;;;;;;-144.99;49.22;52024.16;5083874;28;20318;-73
2022/06/26 10:00:20;;;;;;;;;;;;;;;-144.99;48.75;52069.00;5082159;28;19947;-72
2022/06/26 10:08:19;;;;;;;;;;;;;;;-144.99;50.21;52083.25;5081111;28;19970;-72
2022/06/26 10:10:48;;;;;;;;;;;;;;;-144.99;49.49;52101.59;5086446;28;19920;-72
2022/06/26 10:13:15;;;;;;;;;;;;;;;-144.99;49.44;52081.22;5083530;28;19963;-72
2022/06/26 10:15:45;;;;;;;;;;;;;;;-144.99;48.62;52130.13;5085227;28;19928;-71
2022/06/26 10:18:21;;;;;;;;;;;;;;;-144.99;48.81;52081.22;5087488;28;19935;-72
2022/06/26 10:20:49;;;;;;;;;;;;;;;-144.99;49.06;52097.53;5081818;28;19920;-73
2022/06/26 10:23:30;;;;;;;;;;;;;;;-144.99;48.66;52066.97;5086051;28;19973;-71
2022/06/26 10:25:58;;;;;;;;;;;;;;;-144.99;48.54;52032.31;5087057;28;19968;-72
2022/06/26 10:28:25;;;;;;;;;;;;;;;-144.99;47.67;52044.53;5087590;28;19931;-77
2022/06/26 10:30:51;;;;;;;;;;;;;;;-144.99;47.12;52058.81;5087893;28;20327;-73
2022/06/26 10:33:18;;;;;;;;;;;;;;;-144.99;46.62;52056.78;5090473;28;19924;-74
2022/06/26 10:35:46;;;;;;;;;;;;;;;-144.99;47.30;52020.09;5085770;28;20010;-74
2022/06/26 10:38:20;;;;;;;;;;;;;;;-144.99;47.14;52028.22;5087352;28;19935;-73
2022/06/26 10:43:42;;;;;;;;;;;;;;;-144.99;47.46;52028.22;5086395;28;19934;-73
2022/06/26 10:46:11;;;;;;;;;;;;;;;-144.99;47.39;52040.47;5087392;28;19955;-72
2022/06/26 10:48:38;;;;;;;;;;;;;;;-144.99;47.75;52052.69;5089735;28;19993;-72
2022/06/26 10:51:04;;;;;;;;;;;;;;;-144.99;47.66;52007.84;5089251;28;19928;-74
2022/06/26 10:53:32;;;;;;;;;;;;;;;-144.99;47.37;52007.84;5090066;28;19977;-74
2022/06/26 10:55:59;;;;;;;;;;;;;;;-144.99;46.70;52036.38;5084860;28;19976;-74
2022/06/26 10:58:28;;;;;;;;;;;;;;;-144.99;45.95;51997.66;5082568;28;20382;-74
2022/06/26 11:00:57;;;;;;;;;;;;;;;-144.99;46.62;51950.78;5087503;28;19991;-72
2022/06/26 11:03:23;;;;;;;;;;;;;;;-144.99;46.70;51952.81;5090478;28;19985;-74
2022/06/26 11:05:51;;;;;;;;;;;;;;;-144.99;46.09;51946.72;5086773;28;19920;-72
2022/06/26 11:08:23;;;;;;;;;;;;;;;-144.99;45.13;51934.50;5091415;28;20015;-75
2022/06/26 11:10:49;;;;;;;;;;;;;;;-144.99;44.28;51985.44;5091215;28;19935;-74
2022/06/26 11:13:16;;;;;;;;;;;;;;;-144.99;45.21;51954.88;5089365;28;20016;-74
2022/06/26 11:15:44;;;;;;;;;;;;;;;-144.99;45.53;51967.09;5085732;28;19996;-74
2022/06/26 11:18:12;;;;;;;;;;;;;;;-144.99;45.83;51979.31;5087557;28;19981;-74
2022/06/26 11:20:49;;;;;;;;;;;;;;;-144.99;45.76;52003.78;5084745;28;19923;-72
2022/06/26 11:23:18;;;;;;;;;;;;;;;-144.99;46.37;52024.16;5085495;28;19938;-73
2022/06/26 11:25:45;;;;;;;;;;;;;;;-144.99;46.78;52032.31;5088150;28;19932;-73
2022/06/26 11:28:12;;;;;;;;;;;;;;;-144.99;46.83;52048.63;5086880;28;20001;-74
2022/06/26 11:30:39;;;;;;;;;;;;;;;-144.99;47.39;52009.91;5087148;28;19931;-75
2022/06/26 11:33:06;;;;;;;;;;;;;;;-144.99;47.45;51975.25;5089933;28;19939;-76
2022/06/26 11:35:35;;;;;;;;;;;;;;;-144.99;47.07;52020.09;5089185;28;19928;-78
2022/06/26 11:38:08;;;;;;;;;;;;;;;-144.99;46.21;51967.09;5085119;28;20003;-75
2022/06/26 11:40:35;;;;;;;;;;;;;;;-144.99;46.43;51967.09;5083276;28;19948;-75
2022/06/26 11:43:02;;;;;;;;;;;;;;;-144.99;45.46;51934.50;5080986;28;19934;-74
2022/06/26 11:45:31;;;;;;;;;;;;;;;-144.99;45.30;51983.41;5081899;28;19924;-78
2022/06/26 11:47:57;;;;;;;;;;;;;;;-144.99;44.68;51985.44;5087186;28;19931;-75
2022/06/26 11:50:27;;;;;;;;;;;;;;;-144.99;44.33;51938.56;5084447;28;19924;-76
2022/06/26 11:52:55;;;;;;;;;;;;;;;-144.99;44.23;51930.41;5084661;28;19931;-77
2022/06/26 11:55:23;;;;;;;;;;;;;;;-144.99;43.48;51967.09;5083745;28;19932;-75
2022/06/26 11:57:49;;;;;;;;;;;;;;;-144.99;44.07;51987.47;5082607;28;19924;-77
2022/06/26 12:00:17;;;;;;;;;;;;;;;-144.99;45.12;52020.09;5088117;28;19920;-77
2022/06/26 12:02:45;;;;;;;;;;;;;;;-144.99;46.11;51967.09;5081087;28;20596;-75
2022/06/26 12:05:12;;;;;;;;;;;;;;;-144.99;45.57;51983.41;5087428;28;19938;-75
2022/06/26 12:07:42;;;;;;;;;;;;;;;-144.99;44.92;51971.16;5085230;28;20414;-75
2022/06/26 12:10:10;;;;;;;;;;;;;;;-144.99;44.86;51960.97;5078522;28;19982;-76
2022/06/26 12:12:37;;;;;;;;;;;;;;;-144.99;44.33;51956.91;5084312;28;19924;-76
2022/06/26 12:15:04;;;;;;;;;;;;;;;-144.99;43.73;51934.50;5084647;28;19923;-76
2022/06/26 12:17:30;;;;;;;;;;;;;;;-144.99;43.40;51942.63;5077863;28;19993;-75
2022/06/26 12:20:05;;;;;;;;;;;;;;;-144.99;43.49;51938.56;5079504;28;19927;-76
2022/06/26 12:22:33;;;;;;;;;;;;;;;-144.99;43.24;51946.72;5083871;28;19928;-76
2022/06/26 12:25:00;;;;;;;;;;;;;;;-144.99;42.98;51958.94;5087316;28;19924;-76
2022/06/26 12:27:36;;;;;;;;;;;;;;;-144.99;42.79;51975.25;5081227;28;19921;-76
2022/06/26 12:30:02;;;;;;;;;;;;;;;-144.99;43.33;51979.31;5084046;28;19985;-77
2022/06/26 12:34:59;;;;;;;;;;;;;;;-144.99;43.61;51971.16;5092697;28;20351;-76
2022/06/26 12:37:27;;;;;;;;;;;;;;;-144.99;43.68;52024.16;5101516;28;21968;-78
2022/06/26 12:39:54;;;;;;;;;;;;;;;-144.99;43.78;51995.63;5106633;28;19963;-76